createdAt,value
2017-05-13T00:00:10.213Z,0
2017-05-13T00:01:10.206Z,0
2017-05-13T00:02:10.197Z,0
2017-05-13T00:03:10.199Z,0
2017-05-13T00:04:10.189Z,0
2017-05-13T00:05:10.184Z,0
2017-05-13T00:06:10.486Z,0
2017-05-13T00:07:10.478Z,0
2017-05-13T00:08:10.169Z,0
2017-05-13T00:09:10.165Z,0
2017-05-13T00:10:10.162Z,0
2017-05-13T00:11:10.153Z,0
2017-05-13T00:12:09.544Z,0
2017-05-13T00:13:09.844Z,0
2017-05-13T00:14:10.447Z,0
2017-05-13T00:15:10.442Z,0
2017-05-13T00:16:10.133Z,0
2017-05-13T00:17:10.428Z,0
2017-05-13T00:18:10.430Z,0
2017-05-13T00:19:10.421Z,0
2017-05-13T00:20:09.855Z,0
2017-05-13T00:21:10.109Z,0
2017-05-13T00:22:09.806Z,0
2017-05-13T00:23:10.402Z,0
2017-05-13T00:24:10.395Z,0
2017-05-13T00:25:10.644Z,0
2017-05-13T00:26:10.090Z,0
2017-05-13T00:27:10.082Z,0
2017-05-13T00:28:10.075Z,0
2017-05-13T00:29:10.381Z,0
2017-05-13T00:30:10.021Z,0
2017-05-13T00:31:10.366Z,0
2017-05-13T00:32:10.359Z,0
2017-05-13T00:33:10.356Z,0
2017-05-13T00:34:09.743Z,0
2017-05-13T00:35:10.345Z,0
2017-05-13T00:36:10.044Z,0
2017-05-13T00:37:10.334Z,0
2017-05-13T00:38:10.028Z,0
2017-05-13T00:39:10.326Z,0
2017-05-13T00:40:10.272Z,0
2017-05-13T00:41:10.015Z,0
2017-05-13T00:42:10.016Z,0
2017-05-13T00:43:10.304Z,0
2017-05-13T00:44:10.309Z,0
2017-05-13T00:45:09.940Z,0
2017-05-13T00:46:09.995Z,0
2017-05-13T00:47:10.288Z,0
2017-05-13T00:48:09.680Z,0
2017-05-13T00:49:09.983Z,0
2017-05-13T00:50:10.269Z,0
2017-05-13T00:51:10.273Z,0
2017-05-13T00:52:10.267Z,0
2017-05-13T00:53:10.264Z,0
2017-05-13T00:54:09.955Z,0
2017-05-13T00:55:10.547Z,0
2017-05-13T00:56:10.243Z,0
2017-05-13T00:57:09.937Z,0
2017-05-13T00:58:10.239Z,0
2017-05-13T00:59:09.926Z,0
2017-05-13T01:00:10.169Z,0
2017-05-13T01:01:10.222Z,0
2017-05-13T01:02:10.212Z,0
2017-05-13T01:03:10.215Z,0
2017-05-13T01:04:09.901Z,0
2017-05-13T01:05:10.503Z,0
2017-05-13T01:06:10.194Z,0
2017-05-13T01:07:09.616Z,0
2017-05-13T01:08:10.186Z,0
2017-05-13T01:09:10.182Z,0
2017-05-13T01:10:10.174Z,0
2017-05-13T01:11:10.171Z,0
2017-05-13T01:12:10.173Z,0
2017-05-13T01:13:09.864Z,0
2017-05-13T01:14:09.855Z,0
2017-05-13T01:15:10.100Z,0
2017-05-13T01:16:09.846Z,0
2017-05-13T01:17:10.140Z,0
2017-05-13T01:18:09.833Z,0
2017-05-13T01:19:09.832Z,0
2017-05-13T01:20:10.078Z,0
2017-05-13T01:21:09.819Z,0
2017-05-13T01:22:10.117Z,0
2017-05-13T01:23:10.114Z,0
2017-05-13T01:24:10.112Z,0
2017-05-13T01:25:10.354Z,0
2017-05-13T01:26:09.496Z,0
2017-05-13T01:27:10.092Z,0
2017-05-13T01:28:10.087Z,0
2017-05-13T01:29:09.779Z,0
2017-05-13T01:30:10.074Z,0
2017-05-13T01:31:10.077Z,0
2017-05-13T01:32:09.764Z,0
2017-05-13T01:33:10.061Z,0
2017-05-13T01:34:09.762Z,0
2017-05-13T01:35:10.352Z,0
2017-05-13T01:36:09.744Z,0
2017-05-13T01:37:10.046Z,0
2017-05-13T01:38:09.737Z,0
2017-05-13T01:39:10.035Z,0
2017-05-13T01:40:10.279Z,0
2017-05-13T01:41:10.023Z,0
2017-05-13T01:42:10.016Z,0
2017-05-13T01:43:10.019Z,0
2017-05-13T01:44:10.005Z,0
2017-05-13T01:45:09.951Z,0
2017-05-13T01:46:09.696Z,0
2017-05-13T01:47:09.993Z,0
2017-05-13T01:48:09.685Z,0
2017-05-13T01:49:09.377Z,0
2017-05-13T01:50:09.922Z,0
2017-05-13T01:51:09.978Z,0
2017-05-13T01:52:09.670Z,0
2017-05-13T01:53:09.963Z,0
2017-05-13T01:54:09.959Z,0
2017-05-13T01:55:09.901Z,0
2017-05-13T01:56:09.949Z,0
2017-05-13T01:57:09.945Z,0
2017-05-13T01:58:09.942Z,0
2017-05-13T01:59:09.932Z,0
2017-05-13T02:00:09.928Z,0
2017-05-13T02:01:09.620Z,0
2017-05-13T02:02:09.916Z,0
2017-05-13T02:03:09.607Z,0
2017-05-13T02:04:09.909Z,0
2017-05-13T02:05:10.164Z,0
2017-05-13T02:06:09.592Z,0
2017-05-13T02:07:09.892Z,0
2017-05-13T02:08:09.886Z,0
2017-05-13T02:09:09.885Z,0
2017-05-13T02:10:10.234Z,0
2017-05-13T02:11:09.872Z,0
2017-05-13T02:12:09.564Z,0
2017-05-13T02:13:09.557Z,0
2017-05-13T02:14:09.868Z,0
2017-05-13T02:15:09.796Z,0
2017-05-13T02:16:09.844Z,0
2017-05-13T02:17:09.839Z,0
2017-05-13T02:18:09.833Z,0
2017-05-13T02:19:09.830Z,0
2017-05-13T02:20:10.076Z,0
2017-05-13T02:21:09.814Z,0
2017-05-13T02:22:09.855Z,0
2017-05-13T02:23:09.808Z,0
2017-05-13T02:24:09.499Z,0
2017-05-13T02:25:09.744Z,0
2017-05-13T02:26:09.792Z,0
2017-05-13T02:27:09.783Z,0
2017-05-13T02:28:09.785Z,0
2017-05-13T02:29:09.776Z,0
2017-05-13T02:30:09.767Z,0
2017-05-13T02:31:09.774Z,0
2017-05-13T02:32:09.760Z,0
2017-05-13T02:33:09.755Z,0
2017-05-13T02:34:09.757Z,0
2017-05-13T02:35:10.000Z,0
2017-05-13T02:36:09.733Z,0
2017-05-13T02:37:09.734Z,0
2017-05-13T02:38:09.424Z,0
2017-05-13T02:39:09.723Z,0
2017-05-13T02:40:09.964Z,4
2017-05-13T02:41:09.751Z,4
2017-05-13T02:42:09.400Z,0
2017-05-13T02:43:09.698Z,0
2017-05-13T02:44:09.394Z,0
2017-05-13T02:45:09.990Z,4
2017-05-13T02:46:09.680Z,4
2017-05-13T02:47:09.380Z,0
2017-05-13T02:48:09.674Z,4
2017-05-13T02:49:09.676Z,4
2017-05-13T02:50:09.908Z,4
2017-05-13T02:51:09.659Z,8
2017-05-13T02:52:09.398Z,4
2017-05-13T02:53:09.647Z,8
2017-05-13T02:54:09.638Z,8
2017-05-13T02:55:09.888Z,8
2017-05-13T02:56:09.624Z,12
2017-05-13T02:57:09.620Z,12
2017-05-13T02:58:09.317Z,16
2017-05-13T02:59:09.307Z,16
2017-05-13T03:00:09.599Z,16
2017-05-13T03:01:09.595Z,24
2017-05-13T03:02:09.287Z,28
2017-05-13T03:03:09.585Z,28
2017-05-13T03:04:09.276Z,28
2017-05-13T03:05:09.824Z,32
2017-05-13T03:06:09.571Z,40
2017-05-13T03:07:09.563Z,44
2017-05-13T03:08:09.557Z,44
2017-05-13T03:09:09.248Z,48
2017-05-13T03:10:09.534Z,56
2017-05-13T03:11:09.540Z,60
2017-05-13T03:12:09.539Z,64
2017-05-13T03:13:09.226Z,72
2017-05-13T03:14:09.523Z,80
2017-05-13T03:15:09.820Z,88
2017-05-13T03:16:09.511Z,92
2017-05-13T03:17:09.503Z,104
2017-05-13T03:18:09.197Z,112
2017-05-13T03:19:09.491Z,120
2017-05-13T03:20:09.788Z,136
2017-05-13T03:21:09.181Z,144
2017-05-13T03:22:09.516Z,156
2017-05-13T03:23:09.466Z,168
2017-05-13T03:24:09.511Z,180
2017-05-13T03:25:09.706Z,196
2017-05-13T03:26:08.844Z,212
2017-05-13T03:27:09.444Z,224
2017-05-13T03:28:09.438Z,236
2017-05-13T03:29:09.435Z,244
2017-05-13T03:30:09.791Z,260
2017-05-13T03:31:09.433Z,276
2017-05-13T03:32:08.812Z,292
2017-05-13T03:33:09.105Z,312
2017-05-13T03:34:09.453Z,332
2017-05-13T03:35:09.647Z,356
2017-05-13T03:36:09.390Z,376
2017-05-13T03:37:09.082Z,396
2017-05-13T03:38:09.391Z,412
2017-05-13T03:39:09.375Z,432
2017-05-13T03:40:09.719Z,444
2017-05-13T03:41:09.054Z,460
2017-05-13T03:42:09.358Z,476
2017-05-13T03:43:09.353Z,484
2017-05-13T03:44:09.347Z,492
2017-05-13T03:45:09.588Z,496
2017-05-13T03:46:09.334Z,492
2017-05-13T03:47:09.327Z,484
2017-05-13T03:48:09.323Z,484
2017-05-13T03:49:09.318Z,480
2017-05-13T03:50:09.562Z,476
2017-05-13T03:51:08.999Z,480
2017-05-13T03:52:08.997Z,488
2017-05-13T03:53:09.295Z,504
2017-05-13T03:54:08.982Z,516
2017-05-13T03:55:09.529Z,540
2017-05-13T03:56:09.282Z,568
2017-05-13T03:57:09.269Z,592
2017-05-13T03:58:09.264Z,620
2017-05-13T03:59:09.257Z,644
2017-05-13T04:00:08.947Z,668
2017-05-13T04:01:09.242Z,688
2017-05-13T04:02:09.236Z,700
2017-05-13T04:03:09.233Z,724
2017-05-13T04:04:09.231Z,744
2017-05-13T04:05:09.218Z,776
2017-05-13T04:06:09.216Z,808
2017-05-13T04:07:09.207Z,844
2017-05-13T04:08:09.202Z,880
2017-05-13T04:09:09.201Z,908
2017-05-13T04:10:09.189Z,928
2017-05-13T04:11:09.184Z,944
2017-05-13T04:12:09.183Z,952
2017-05-13T04:13:08.865Z,960
2017-05-13T04:14:09.167Z,980
2017-05-13T04:15:09.165Z,1004
2017-05-13T04:16:09.153Z,1032
2017-05-13T04:17:09.153Z,1072
2017-05-13T04:18:08.838Z,1120
2017-05-13T04:19:09.138Z,1172
2017-05-13T04:20:08.830Z,1224
2017-05-13T04:21:09.125Z,1288
2017-05-13T04:22:09.118Z,1352
2017-05-13T04:23:09.110Z,1428
2017-05-13T04:24:09.105Z,1508
2017-05-13T04:25:09.142Z,1588
2017-05-13T04:26:09.092Z,1676
2017-05-13T04:27:09.126Z,1772
2017-05-13T04:28:09.081Z,1872
2017-05-13T04:29:09.075Z,1956
2017-05-13T04:30:09.066Z,2040
2017-05-13T04:31:09.059Z,2124
2017-05-13T04:32:08.754Z,2180
2017-05-13T04:33:09.053Z,2220
2017-05-13T04:34:08.745Z,2248
2017-05-13T04:35:08.739Z,2268
2017-05-13T04:36:09.044Z,2272
2017-05-13T04:37:09.024Z,2308
2017-05-13T04:38:09.023Z,2332
2017-05-13T04:39:09.017Z,2340
2017-05-13T04:40:09.007Z,2320
2017-05-13T04:41:09.002Z,2304
2017-05-13T04:42:08.695Z,2288
2017-05-13T04:43:08.990Z,2312
2017-05-13T04:44:08.683Z,2344
2017-05-13T04:45:08.987Z,2424
2017-05-13T04:46:08.668Z,2528
2017-05-13T04:47:08.669Z,2676
2017-05-13T04:48:08.958Z,2836
2017-05-13T04:49:08.962Z,3020
2017-05-13T04:50:08.949Z,3236
2017-05-13T04:51:08.982Z,3476
2017-05-13T04:52:08.936Z,3752
2017-05-13T04:53:08.943Z,4060
2017-05-13T04:54:08.923Z,4416
2017-05-13T04:55:08.923Z,4756
2017-05-13T04:56:08.611Z,5116
2017-05-13T04:57:08.912Z,5360
2017-05-13T04:58:08.298Z,5592
2017-05-13T04:59:08.898Z,5764
2017-05-13T05:00:08.594Z,5908
2017-05-13T05:01:09.143Z,6068
2017-05-13T05:02:08.878Z,6200
2017-05-13T05:03:08.877Z,6380
2017-05-13T05:04:08.868Z,6596
2017-05-13T05:05:08.865Z,6860
2017-05-13T05:06:08.807Z,7076
2017-05-13T05:07:08.855Z,7212
2017-05-13T05:08:08.848Z,7328
2017-05-13T05:09:08.538Z,7408
2017-05-13T05:10:08.534Z,7648
2017-05-13T05:11:09.131Z,7928
2017-05-13T05:12:08.520Z,8288
2017-05-13T05:13:08.515Z,8672
2017-05-13T05:14:08.811Z,9120
2017-05-13T05:15:08.807Z,9540
2017-05-13T05:16:09.052Z,9760
2017-05-13T05:17:08.804Z,9816
2017-05-13T05:18:08.790Z,9856
2017-05-13T05:19:08.488Z,9872
2017-05-13T05:20:08.482Z,9840
2017-05-13T05:21:08.725Z,9864
2017-05-13T05:22:08.773Z,9792
2017-05-13T05:23:08.775Z,9716
2017-05-13T05:24:08.765Z,9656
2017-05-13T05:25:08.756Z,9552
2017-05-13T05:26:08.700Z,9364
2017-05-13T05:27:08.746Z,9056
2017-05-13T05:28:08.749Z,8656
2017-05-13T05:29:08.436Z,8188
2017-05-13T05:30:08.734Z,7688
2017-05-13T05:31:08.728Z,7128
2017-05-13T05:32:08.727Z,6612
2017-05-13T05:33:08.720Z,6188
2017-05-13T05:34:08.724Z,5792
2017-05-13T05:35:08.716Z,5516
2017-05-13T05:36:09.013Z,5328
2017-05-13T05:37:08.400Z,5228
2017-05-13T05:38:08.697Z,5148
2017-05-13T05:39:08.695Z,5120
2017-05-13T05:40:08.696Z,5136
2017-05-13T05:41:08.941Z,5144
2017-05-13T05:42:08.380Z,5120
2017-05-13T05:43:08.676Z,5100
2017-05-13T05:44:08.672Z,5028
2017-05-13T05:45:08.670Z,4964
2017-05-13T05:46:08.918Z,4888
2017-05-13T05:47:08.658Z,4864
2017-05-13T05:48:08.654Z,4856
2017-05-13T05:49:08.649Z,4872
2017-05-13T05:50:08.646Z,4920
2017-05-13T05:51:08.940Z,4980
2017-05-13T05:52:08.639Z,5064
2017-05-13T05:53:08.629Z,5172
2017-05-13T05:54:08.635Z,5320
2017-05-13T05:55:08.626Z,5484
2017-05-13T05:56:08.925Z,5652
2017-05-13T05:57:08.615Z,5812
2017-05-13T05:58:08.609Z,5948
2017-05-13T05:59:08.648Z,6080
2017-05-13T06:00:07.993Z,6204
2017-05-13T06:01:08.910Z,6352
2017-05-13T06:02:08.599Z,6492
2017-05-13T06:03:08.590Z,6592
2017-05-13T06:04:08.282Z,6656
2017-05-13T06:05:07.982Z,6664
2017-05-13T06:06:08.872Z,6632
2017-05-13T06:07:08.571Z,6564
2017-05-13T06:08:08.566Z,6460
2017-05-13T06:09:08.258Z,6264
2017-05-13T06:10:07.950Z,6232
2017-05-13T06:11:09.153Z,6248
2017-05-13T06:12:08.546Z,6336
2017-05-13T06:13:08.543Z,6460
2017-05-13T06:14:08.541Z,6600
2017-05-13T06:15:08.542Z,6692
2017-05-13T06:16:08.478Z,6760
2017-05-13T06:17:08.539Z,6792
2017-05-13T06:18:08.540Z,6800
2017-05-13T06:19:08.528Z,6800
2017-05-13T06:20:08.207Z,6892
2017-05-13T06:21:08.809Z,7068
2017-05-13T06:22:08.502Z,7296
2017-05-13T06:23:08.198Z,7560
2017-05-13T06:24:08.492Z,7872
2017-05-13T06:25:08.489Z,8212
2017-05-13T06:26:08.782Z,8592
2017-05-13T06:27:08.483Z,8992
2017-05-13T06:28:08.473Z,9324
2017-05-13T06:29:08.473Z,9576
2017-05-13T06:30:08.164Z,9756
2017-05-13T06:31:08.764Z,9816
2017-05-13T06:32:08.458Z,9808
2017-05-13T06:33:08.454Z,9756
2017-05-13T06:34:08.456Z,9676
2017-05-13T06:35:08.145Z,9592
2017-05-13T06:36:08.740Z,9512
2017-05-13T06:37:07.830Z,9508
2017-05-13T06:38:07.826Z,9488
2017-05-13T06:39:08.435Z,9500
2017-05-13T06:40:08.429Z,9532
2017-05-13T06:41:08.671Z,9544
2017-05-13T06:42:07.814Z,9484
2017-05-13T06:43:08.108Z,9400
2017-05-13T06:44:08.103Z,9188
2017-05-13T06:45:07.801Z,8880
2017-05-13T06:46:08.701Z,8468
2017-05-13T06:47:07.792Z,8036
2017-05-13T06:48:08.435Z,7624
2017-05-13T06:49:08.433Z,7288
2017-05-13T06:50:08.385Z,7008
2017-05-13T06:51:08.378Z,6844
2017-05-13T06:52:08.078Z,6760
2017-05-13T06:53:08.071Z,6748
2017-05-13T06:54:08.369Z,6844
2017-05-13T06:55:08.060Z,6968
2017-05-13T06:56:08.653Z,7128
2017-05-13T06:57:08.356Z,7348
2017-05-13T06:58:08.051Z,7596
2017-05-13T06:59:08.045Z,7932
2017-05-13T07:00:07.750Z,8300
2017-05-13T07:01:08.288Z,8540
2017-05-13T07:02:08.037Z,8604
2017-05-13T07:03:08.333Z,8500
2017-05-13T07:04:08.026Z,8332
2017-05-13T07:05:08.029Z,8288
2017-05-13T07:06:08.583Z,8404
2017-05-13T07:07:07.710Z,8512
2017-05-13T07:08:08.317Z,8532
2017-05-13T07:09:08.312Z,8228
2017-05-13T07:10:08.305Z,7772
2017-05-13T07:11:08.307Z,7524
2017-05-13T07:12:07.691Z,7516
2017-05-13T07:13:08.301Z,7992
2017-05-13T07:14:08.291Z,8940
2017-05-13T07:15:08.290Z,10372
2017-05-13T07:16:08.282Z,11936
2017-05-13T07:17:08.280Z,13632
2017-05-13T07:18:07.980Z,15260
2017-05-13T07:19:08.272Z,16672
2017-05-13T07:20:08.268Z,17760
2017-05-13T07:21:08.217Z,18976
2017-05-13T07:22:08.276Z,20064
2017-05-13T07:23:08.258Z,20832
2017-05-13T07:24:08.254Z,21024
2017-05-13T07:25:07.648Z,20576
2017-05-13T07:26:08.602Z,19744
2017-05-13T07:27:08.249Z,18816
2017-05-13T07:28:08.245Z,17824
2017-05-13T07:29:07.939Z,16288
2017-05-13T07:30:07.933Z,15504
2017-05-13T07:31:08.185Z,14780
2017-05-13T07:32:08.236Z,14112
2017-05-13T07:33:08.240Z,13752
2017-05-13T07:34:08.232Z,13276
2017-05-13T07:35:07.922Z,12744
2017-05-13T07:36:08.219Z,12948
2017-05-13T07:37:08.220Z,12628
2017-05-13T07:38:07.915Z,12204
2017-05-13T07:39:08.216Z,11788
2017-05-13T07:40:07.911Z,11892
2017-05-13T07:41:08.512Z,11368
2017-05-13T07:42:07.905Z,11048
2017-05-13T07:43:08.206Z,11596
2017-05-13T07:44:08.204Z,11480
2017-05-13T07:45:08.199Z,11656
2017-05-13T07:46:08.452Z,11820
2017-05-13T07:47:08.196Z,12028
2017-05-13T07:48:08.194Z,11804
2017-05-13T07:49:08.192Z,11640
2017-05-13T07:50:08.190Z,12564
2017-05-13T07:51:08.489Z,13092
2017-05-13T07:52:07.884Z,13308
2017-05-13T07:53:08.180Z,13808
2017-05-13T07:54:07.879Z,13872
2017-05-13T07:55:08.178Z,13692
2017-05-13T07:56:08.479Z,13240
2017-05-13T07:57:08.176Z,12796
2017-05-13T07:58:07.869Z,12764
2017-05-13T07:59:07.868Z,12240
2017-05-13T08:00:08.169Z,12052
2017-05-13T08:01:08.114Z,11828
2017-05-13T08:02:08.169Z,11496
2017-05-13T08:03:08.161Z,11284
2017-05-13T08:04:08.162Z,11944
2017-05-13T08:05:08.163Z,13060
2017-05-13T08:06:08.408Z,14500
2017-05-13T08:07:08.156Z,14620
2017-05-13T08:08:08.151Z,15176
2017-05-13T08:09:07.847Z,15536
2017-05-13T08:10:08.147Z,14912
2017-05-13T08:11:08.090Z,14508
2017-05-13T08:12:07.838Z,14008
2017-05-13T08:13:07.836Z,13124
2017-05-13T08:14:07.837Z,12528
2017-05-13T08:15:08.135Z,12116
2017-05-13T08:16:08.442Z,12060
2017-05-13T08:17:08.133Z,12152
2017-05-13T08:18:08.129Z,11860
2017-05-13T08:19:08.132Z,11256
2017-05-13T08:20:08.128Z,10528
2017-05-13T08:21:08.376Z,9696
2017-05-13T08:22:08.122Z,9268
2017-05-13T08:23:08.120Z,8892
2017-05-13T08:24:07.817Z,8156
2017-05-13T08:25:07.809Z,7808
2017-05-13T08:26:08.366Z,7848
2017-05-13T08:27:08.111Z,8080
2017-05-13T08:28:07.807Z,8676
2017-05-13T08:29:08.113Z,9248
2017-05-13T08:30:08.106Z,8756
2017-05-13T08:31:08.461Z,8532
2017-05-13T08:32:08.153Z,8252
2017-05-13T08:33:08.098Z,7824
2017-05-13T08:34:07.488Z,7644
2017-05-13T08:35:07.794Z,7720
2017-05-13T08:36:08.342Z,7624
2017-05-13T08:37:07.786Z,7248
2017-05-13T08:38:08.086Z,7204
2017-05-13T08:39:08.087Z,7192
2017-05-13T08:40:07.791Z,7284
2017-05-13T08:41:08.029Z,7432
2017-05-13T08:42:08.076Z,7248
2017-05-13T08:43:07.779Z,7756
2017-05-13T08:44:07.768Z,8824
2017-05-13T08:45:08.069Z,9792
2017-05-13T08:46:08.376Z,9908
2017-05-13T08:47:08.069Z,8816
2017-05-13T08:48:08.064Z,8012
2017-05-13T08:49:07.761Z,7904
2017-05-13T08:50:08.059Z,7988
2017-05-13T08:51:08.360Z,7732
2017-05-13T08:52:08.055Z,7636
2017-05-13T08:53:08.053Z,7712
2017-05-13T08:54:08.049Z,8080
2017-05-13T08:55:08.049Z,8528
2017-05-13T08:56:08.351Z,8956
2017-05-13T08:57:08.053Z,9384
2017-05-13T08:58:07.742Z,9924
2017-05-13T08:59:08.081Z,10672
2017-05-13T09:00:08.039Z,11164
2017-05-13T09:01:08.289Z,11712
2017-05-13T09:02:08.042Z,12052
2017-05-13T09:03:08.033Z,11600
2017-05-13T09:04:08.030Z,10752
2017-05-13T09:05:08.061Z,10064
2017-05-13T09:06:07.972Z,9440
2017-05-13T09:07:07.936Z,8840
2017-05-13T09:08:07.714Z,8588
2017-05-13T09:09:08.060Z,9372
2017-05-13T09:10:08.015Z,10016
2017-05-13T09:11:08.260Z,9840
2017-05-13T09:12:08.012Z,9380
2017-05-13T09:13:08.011Z,8624
2017-05-13T09:14:08.003Z,7728
2017-05-13T09:15:07.709Z,7188
2017-05-13T09:16:08.249Z,6748
2017-05-13T09:17:07.996Z,6852
2017-05-13T09:18:07.995Z,7288
2017-05-13T09:19:08.000Z,7944
2017-05-13T09:20:07.686Z,8552
2017-05-13T09:21:08.036Z,9228
2017-05-13T09:22:07.685Z,9948
2017-05-13T09:23:07.986Z,11044
2017-05-13T09:24:07.983Z,11676
2017-05-13T09:25:07.680Z,11732
2017-05-13T09:26:08.276Z,11788
2017-05-13T09:27:07.972Z,10628
2017-05-13T09:28:07.974Z,10476
2017-05-13T09:29:07.969Z,10712
2017-05-13T09:30:07.665Z,10652
2017-05-13T09:31:08.212Z,11024
2017-05-13T09:32:07.966Z,11796
2017-05-13T09:33:07.958Z,11816
2017-05-13T09:34:07.955Z,11872
2017-05-13T09:35:07.962Z,12148
2017-05-13T09:36:08.203Z,12140
2017-05-13T09:37:07.955Z,12180
2017-05-13T09:38:07.948Z,11768
2017-05-13T09:39:07.943Z,11668
2017-05-13T09:40:07.644Z,11660
2017-05-13T09:41:08.196Z,11680
2017-05-13T09:42:07.664Z,12244
2017-05-13T09:43:07.635Z,12676
2017-05-13T09:44:07.630Z,12680
2017-05-13T09:45:07.934Z,12980
2017-05-13T09:46:08.232Z,14060
2017-05-13T09:47:07.626Z,15980
2017-05-13T09:48:07.321Z,17792
2017-05-13T09:49:07.624Z,18496
2017-05-13T09:50:07.927Z,18336
2017-05-13T09:51:08.223Z,17856
2017-05-13T09:52:07.617Z,18112
2017-05-13T09:53:07.918Z,17984
2017-05-13T09:54:07.920Z,18048
2017-05-13T09:55:07.916Z,17760
2017-05-13T09:56:08.168Z,18688
2017-05-13T09:57:07.915Z,19872
2017-05-13T09:58:07.609Z,19680
2017-05-13T09:59:07.914Z,19104
2017-05-13T10:00:07.605Z,18720
2017-05-13T10:01:08.210Z,17856
2017-05-13T10:02:07.910Z,16768
2017-05-13T10:03:07.958Z,16608
2017-05-13T10:04:07.907Z,17888
2017-05-13T10:05:07.914Z,19328
2017-05-13T10:06:08.153Z,20096
2017-05-13T10:07:07.902Z,20384
2017-05-13T10:08:07.904Z,19232
2017-05-13T10:09:07.900Z,17504
2017-05-13T10:10:07.657Z,16108
2017-05-13T10:11:08.199Z,15072
2017-05-13T10:12:07.898Z,14924
2017-05-13T10:13:07.903Z,14628
2017-05-13T10:14:07.901Z,14760
2017-05-13T10:15:07.594Z,15064
2017-05-13T10:16:08.151Z,13808
2017-05-13T10:17:07.901Z,12008
2017-05-13T10:18:07.903Z,11708
2017-05-13T10:19:07.895Z,12048
2017-05-13T10:20:07.596Z,11488
2017-05-13T10:21:08.354Z,11028
2017-05-13T10:22:07.593Z,11052
2017-05-13T10:23:07.598Z,11788
2017-05-13T10:24:07.593Z,12940
2017-05-13T10:25:07.588Z,14084
2017-05-13T10:26:08.194Z,14620
2017-05-13T10:27:07.901Z,14416
2017-05-13T10:28:07.589Z,14464
2017-05-13T10:29:07.893Z,14996
2017-05-13T10:30:07.892Z,15320
2017-05-13T10:31:08.192Z,15624
2017-05-13T10:32:07.595Z,15928
2017-05-13T10:33:07.889Z,16092
2017-05-13T10:34:07.892Z,17088
2017-05-13T10:35:07.890Z,18368
2017-05-13T10:36:07.838Z,18848
2017-05-13T10:37:07.893Z,19136
2017-05-13T10:38:07.888Z,18976
2017-05-13T10:39:07.891Z,18208
2017-05-13T10:40:07.583Z,18496
2017-05-13T10:41:08.238Z,20064
2017-05-13T10:42:07.892Z,21440
2017-05-13T10:43:07.894Z,22656
2017-05-13T10:44:07.587Z,22912
2017-05-13T10:45:07.584Z,22688
2017-05-13T10:46:07.887Z,22432
2017-05-13T10:47:07.928Z,22336
2017-05-13T10:48:07.588Z,22368
2017-05-13T10:49:07.895Z,22752
2017-05-13T10:50:07.933Z,23232
2017-05-13T10:51:08.140Z,23872
2017-05-13T10:52:07.634Z,24448
2017-05-13T10:53:07.897Z,24864
2017-05-13T10:54:07.900Z,25504
2017-05-13T10:55:07.895Z,26144
2017-05-13T10:56:08.156Z,26208
2017-05-13T10:57:07.908Z,25760
2017-05-13T10:58:07.596Z,24896
2017-05-13T10:59:07.904Z,23680
2017-05-13T11:00:07.598Z,21792
2017-05-13T11:01:08.156Z,19360
2017-05-13T11:02:07.910Z,17216
2017-05-13T11:03:07.913Z,16256
2017-05-13T11:04:07.910Z,15440
2017-05-13T11:05:07.608Z,14768
2017-05-13T11:06:07.914Z,14724
2017-05-13T11:07:07.614Z,14552
2017-05-13T11:08:07.614Z,13944
2017-05-13T11:09:07.614Z,13756
2017-05-13T11:10:07.619Z,14072
2017-05-13T11:11:07.917Z,14436
2017-05-13T11:12:07.622Z,14740
2017-05-13T11:13:07.926Z,15764
2017-05-13T11:14:07.322Z,16800
2017-05-13T11:15:07.625Z,18144
2017-05-13T11:16:08.181Z,19616
2017-05-13T11:17:07.630Z,20000
2017-05-13T11:18:07.641Z,19136
2017-05-13T11:19:07.938Z,18464
2017-05-13T11:20:07.641Z,18560
2017-05-13T11:21:07.940Z,18976
2017-05-13T11:22:07.640Z,19072
2017-05-13T11:23:07.641Z,19392
2017-05-13T11:24:07.949Z,19424
2017-05-13T11:25:07.954Z,18752
2017-05-13T11:26:07.988Z,18016
2017-05-13T11:27:07.953Z,17504
2017-05-13T11:28:07.955Z,16992
2017-05-13T11:29:07.958Z,16960
2017-05-13T11:30:07.963Z,17984
2017-05-13T11:31:08.212Z,20352
2017-05-13T11:32:07.664Z,23040
2017-05-13T11:33:08.013Z,24896
2017-05-13T11:34:07.969Z,25728
2017-05-13T11:35:07.664Z,25248
2017-05-13T11:36:07.920Z,23904
2017-05-13T11:37:07.677Z,22656
2017-05-13T11:38:07.979Z,21440
2017-05-13T11:39:07.677Z,21152
2017-05-13T11:40:07.685Z,21664
2017-05-13T11:41:08.235Z,22272
2017-05-13T11:42:07.987Z,22464
2017-05-13T11:43:07.990Z,22208
2017-05-13T11:44:07.993Z,22048
2017-05-13T11:45:08.000Z,23424
2017-05-13T11:46:08.257Z,24768
2017-05-13T11:47:07.999Z,24672
2017-05-13T11:48:07.702Z,25536
2017-05-13T11:49:08.012Z,26592
2017-05-13T11:50:08.006Z,26688
2017-05-13T11:51:08.311Z,26912
2017-05-13T11:52:08.012Z,27616
2017-05-13T11:53:08.057Z,29024
2017-05-13T11:54:08.021Z,30592
2017-05-13T11:55:08.025Z,30816
2017-05-13T11:56:08.074Z,30176
2017-05-13T11:57:07.727Z,29184
2017-05-13T11:58:08.032Z,27872
2017-05-13T11:59:08.037Z,26784
2017-05-13T12:00:07.740Z,26592
2017-05-13T12:01:07.995Z,26816
2017-05-13T12:02:08.046Z,27104
2017-05-13T12:03:08.056Z,27776
2017-05-13T12:04:08.055Z,28384
2017-05-13T12:05:08.060Z,28000
2017-05-13T12:06:08.112Z,27424
2017-05-13T12:07:07.765Z,27712
2017-05-13T12:08:08.073Z,28416
2017-05-13T12:09:08.427Z,28832
2017-05-13T12:10:07.781Z,29056
2017-05-13T12:11:08.032Z,28288
2017-05-13T12:12:08.098Z,27232
2017-05-13T12:13:08.095Z,26912
2017-05-13T12:14:08.097Z,27904
2017-05-13T12:15:08.102Z,28576
2017-05-13T12:16:08.056Z,28992
2017-05-13T12:17:08.112Z,29216
2017-05-13T12:18:08.113Z,29408
2017-05-13T12:19:08.121Z,29376
2017-05-13T12:20:07.825Z,28992
2017-05-13T12:21:08.380Z,28544
2017-05-13T12:22:08.132Z,28000
2017-05-13T12:23:08.146Z,27552
2017-05-13T12:24:08.140Z,27264
2017-05-13T12:25:08.148Z,27328
2017-05-13T12:26:08.500Z,27168
2017-05-13T12:27:08.200Z,26848
2017-05-13T12:28:08.161Z,26432
2017-05-13T12:29:08.167Z,25952
2017-05-13T12:30:07.875Z,25568
2017-05-13T12:31:08.127Z,24768
2017-05-13T12:32:08.189Z,24128
2017-05-13T12:33:08.185Z,23456
2017-05-13T12:34:08.196Z,23392
2017-05-13T12:35:08.197Z,23936
2017-05-13T12:36:08.150Z,23840
2017-05-13T12:37:08.207Z,24160
2017-05-13T12:38:07.612Z,24096
2017-05-13T12:39:08.215Z,24000
2017-05-13T12:40:08.221Z,24224
2017-05-13T12:41:08.527Z,24448
2017-05-13T12:42:08.239Z,25248
2017-05-13T12:43:08.235Z,26336
2017-05-13T12:44:08.242Z,26368
2017-05-13T12:45:07.945Z,26304
2017-05-13T12:46:08.507Z,25920
2017-05-13T12:47:08.261Z,25632
2017-05-13T12:48:08.255Z,25440
2017-05-13T12:49:08.277Z,25088
2017-05-13T12:50:08.268Z,25088
2017-05-13T12:51:08.621Z,24672
2017-05-13T12:52:08.292Z,23744
2017-05-13T12:53:08.281Z,22400
2017-05-13T12:54:07.986Z,21216
2017-05-13T12:55:08.290Z,20512
2017-05-13T12:56:07.990Z,20128
2017-05-13T12:57:08.305Z,19872
2017-05-13T12:58:07.999Z,19456
2017-05-13T12:59:08.307Z,18656
2017-05-13T13:00:08.312Z,17664
2017-05-13T13:01:08.321Z,17056
2017-05-13T13:02:08.322Z,16736
2017-05-13T13:03:08.327Z,16280
2017-05-13T13:04:08.024Z,16120
2017-05-13T13:05:08.335Z,16028
2017-05-13T13:06:08.339Z,15900
2017-05-13T13:07:08.345Z,15792
2017-05-13T13:08:08.345Z,15828
2017-05-13T13:09:08.046Z,15992
2017-05-13T13:10:08.349Z,16080
2017-05-13T13:11:08.356Z,16328
2017-05-13T13:12:08.359Z,16960
2017-05-13T13:13:08.363Z,17280
2017-05-13T13:14:08.367Z,17664
2017-05-13T13:15:08.066Z,18080
2017-05-13T13:16:08.374Z,18656
2017-05-13T13:17:08.377Z,18848
2017-05-13T13:18:08.381Z,19200
2017-05-13T13:19:08.122Z,19808
2017-05-13T13:20:08.429Z,20256
2017-05-13T13:21:08.391Z,20608
2017-05-13T13:22:07.787Z,20896
2017-05-13T13:23:08.091Z,21344
2017-05-13T13:24:08.402Z,21856
2017-05-13T13:25:08.403Z,22368
2017-05-13T13:26:08.104Z,22656
2017-05-13T13:27:08.416Z,23008
2017-05-13T13:28:08.413Z,23072